createdAt,value
2022-11-16T00:02:18.982Z,10.24
2022-11-16T00:04:45.417Z,10.24
2022-11-16T00:07:12.039Z,10.31
2022-11-16T00:09:38.657Z,10.14
2022-11-16T00:12:07.345Z,10.27
2022-11-16T00:14:35.742Z,10.25
2022-11-16T00:17:02.773Z,10.25
2022-11-16T00:19:29.686Z,10.25
2022-11-16T00:21:56.245Z,10.28
2022-11-16T00:24:23.376Z,10.27
2022-11-16T00:26:50.312Z,10.25
2022-11-16T00:29:20.006Z,10.27
2022-11-16T00:31:47.092Z,10.30
2022-11-16T00:34:14.048Z,10.21
2022-11-16T00:36:40.615Z,10.22
2022-11-16T00:39:07.222Z,10.32
2022-11-16T00:41:33.729Z,10.31
2022-11-16T00:44:00.129Z,10.32
2022-11-16T00:46:26.722Z,10.40
2022-11-16T00:48:53.299Z,10.37
2022-11-16T00:51:19.679Z,10.36
2022-11-16T00:53:46.314Z,10.36
2022-11-16T00:56:12.948Z,10.30
2022-11-16T00:58:39.320Z,10.18
2022-11-16T01:01:08.905Z,10.33
2022-11-16T01:03:36.329Z,10.30
2022-11-16T01:06:04.648Z,10.31
2022-11-16T01:08:31.670Z,10.37
2022-11-16T01:11:19.031Z,10.34
2022-11-16T01:13:45.410Z,10.27
2022-11-16T01:16:16.426Z,10.26
2022-11-16T01:18:50.777Z,10.24
2022-11-16T01:21:18.074Z,10.21
2022-11-16T01:23:45.042Z,10.13
2022-11-16T01:26:11.524Z,9.98
2022-11-16T01:28:37.921Z,9.95
2022-11-16T01:31:04.634Z,9.96
2022-11-16T01:33:31.042Z,9.90
2022-11-16T01:35:57.449Z,9.85
2022-11-16T01:38:27.209Z,9.85
2022-11-16T01:40:56.133Z,9.84
2022-11-16T01:43:24.708Z,9.86
2022-11-16T01:45:51.810Z,9.86
2022-11-16T01:48:23.466Z,9.84
2022-11-16T01:50:50.523Z,9.86
2022-11-16T01:53:17.077Z,9.81
2022-11-16T01:55:46.609Z,9.79
2022-11-16T01:58:19.646Z,9.82
2022-11-16T02:00:46.420Z,9.79
2022-11-16T02:03:12.828Z,9.79
2022-11-16T02:06:06.821Z,9.76
2022-11-16T02:09:27.581Z,9.78
2022-11-16T02:12:28.894Z,9.76
2022-11-16T02:15:01.413Z,9.73
2022-11-16T02:17:43.027Z,9.75
2022-11-16T02:20:09.521Z,9.83
2022-11-16T02:23:20.765Z,9.81
2022-11-16T02:26:02.248Z,9.85
2022-11-16T02:29:05.647Z,9.90
2022-11-16T02:31:39.589Z,9.83
2022-11-16T02:34:10.169Z,9.85
2022-11-16T02:36:40.062Z,9.81
2022-11-16T02:39:12.221Z,9.86
2022-11-16T02:41:43.036Z,9.95
2022-11-16T02:44:18.324Z,9.90
2022-11-16T02:46:48.553Z,9.81
2022-11-16T02:49:18.630Z,9.80
2022-11-16T02:51:47.680Z,9.80
2022-11-16T02:54:19.589Z,9.75
2022-11-16T02:56:58.156Z,9.75
2022-11-16T02:59:30.867Z,9.71
2022-11-16T03:02:31.614Z,9.77
2022-11-16T03:05:15.664Z,9.75
2022-11-16T03:07:50.790Z,9.71
2022-11-16T03:10:38.722Z,9.73
2022-11-16T03:13:09.568Z,9.67
2022-11-16T03:15:39.414Z,9.72
2022-11-16T03:18:08.798Z,9.72
2022-11-16T03:20:38.497Z,9.68
2022-11-16T03:23:10.014Z,9.73
2022-11-16T03:25:42.102Z,9.68
2022-11-16T03:28:15.099Z,9.70
2022-11-16T03:30:47.113Z,9.70
2022-11-16T03:33:27.551Z,9.67
2022-11-16T03:36:07.137Z,9.67
2022-11-16T03:38:36.645Z,9.67
2022-11-16T03:41:07.824Z,9.68
2022-11-16T03:43:36.354Z,9.65
2022-11-16T03:46:02.901Z,9.68
2022-11-16T03:48:37.954Z,9.66
2022-11-16T03:51:05.694Z,9.61
2022-11-16T03:53:32.113Z,9.61
2022-11-16T03:55:58.582Z,9.60
2022-11-16T03:58:24.972Z,9.63
2022-11-16T04:00:51.428Z,9.62
2022-11-16T04:03:17.921Z,9.60
2022-11-16T04:06:03.006Z,9.60
2022-11-16T04:08:53.884Z,9.59
2022-11-16T04:11:40.185Z,9.50
2022-11-16T04:14:31.983Z,9.61
2022-11-16T04:17:17.296Z,9.60
2022-11-16T04:20:02.227Z,9.59
2022-11-16T04:22:57.153Z,9.58
2022-11-16T04:25:30.577Z,9.53
2022-11-16T04:28:16.633Z,9.55
2022-11-16T04:31:04.967Z,9.54
2022-11-16T04:33:50.475Z,9.56
2022-11-16T04:36:35.732Z,9.55
2022-11-16T04:39:02.305Z,9.53
2022-11-16T04:41:49.308Z,9.52
2022-11-16T04:44:16.060Z,9.51
2022-11-16T04:47:01.378Z,9.46
2022-11-16T04:49:28.016Z,9.47
2022-11-16T04:51:54.464Z,9.47
2022-11-16T04:54:20.884Z,9.45
2022-11-16T04:56:47.445Z,9.42
2022-11-16T04:59:14.249Z,9.41
2022-11-16T05:01:59.417Z,9.39
2022-11-16T05:04:25.906Z,9.38
2022-11-16T05:06:52.380Z,9.36
2022-11-16T05:09:18.938Z,9.34
2022-11-16T05:11:45.309Z,9.33
2022-11-16T05:14:11.878Z,9.28
2022-11-16T05:16:38.292Z,9.30
2022-11-16T05:19:23.490Z,9.28
2022-11-16T05:21:49.920Z,9.30
2022-11-16T05:24:34.171Z,9.28
2022-11-16T05:27:05.479Z,9.27
2022-11-16T05:29:32.287Z,9.23
2022-11-16T05:31:59.509Z,9.25
2022-11-16T05:34:26.247Z,9.26
2022-11-16T05:36:52.749Z,9.22
2022-11-16T05:39:19.566Z,9.20
2022-11-16T05:41:46.937Z,9.21
2022-11-16T05:44:14.594Z,9.20
2022-11-16T05:46:41.647Z,9.18
2022-11-16T05:49:08.817Z,9.17
2022-11-16T05:51:40.320Z,9.12
2022-11-16T05:54:07.459Z,9.17
2022-11-16T05:56:34.581Z,9.13
2022-11-16T05:59:01.388Z,9.11
2022-11-16T06:01:28.034Z,9.07
2022-11-16T06:03:54.486Z,9.04
2022-11-16T06:06:21.029Z,9.03
2022-11-16T06:08:47.561Z,9.00
2022-11-16T06:11:14.369Z,8.97
2022-11-16T06:13:40.995Z,8.94
2022-11-16T06:16:08.095Z,8.94
2022-11-16T06:18:39.939Z,8.92
2022-11-16T06:21:07.392Z,8.87
2022-11-16T06:23:34.432Z,8.85
2022-11-16T06:26:01.506Z,8.83
2022-11-16T06:28:28.639Z,8.83
2022-11-16T06:30:55.130Z,8.77
2022-11-16T06:33:21.873Z,8.76
2022-11-16T06:35:48.267Z,8.70
2022-11-16T06:38:18.646Z,8.64
2022-11-16T06:40:52.694Z,8.60
2022-11-16T06:43:19.919Z,8.53
2022-11-16T06:45:50.750Z,8.44
2022-11-16T06:48:18.191Z,8.44
2022-11-16T06:50:45.244Z,8.43
2022-11-16T06:53:11.732Z,8.48
2022-11-16T06:55:38.113Z,8.38
2022-11-16T06:58:04.652Z,8.35
2022-11-16T07:00:31.196Z,8.31
2022-11-16T07:02:57.630Z,8.20
2022-11-16T07:05:24.061Z,8.22
2022-11-16T07:07:55.246Z,8.18
2022-11-16T07:10:23.506Z,8.17
2022-11-16T07:12:49.947Z,8.11
2022-11-16T07:15:16.929Z,8.08
2022-11-16T07:17:43.383Z,7.99
2022-11-16T07:20:09.935Z,8.07
2022-11-16T07:22:36.307Z,8.12
2022-11-16T07:25:02.709Z,8.14
2022-11-16T07:27:29.117Z,8.12
2022-11-16T07:29:55.712Z,8.03
2022-11-16T07:32:22.198Z,8.02
2022-11-16T07:34:48.572Z,8.03
2022-11-16T07:37:14.939Z,8.05
2022-11-16T07:42:25.222Z,8.02
2022-11-16T07:44:51.602Z,8.05
2022-11-16T07:47:17.954Z,8.11
2022-11-16T07:49:44.388Z,8.10
2022-11-16T07:52:10.981Z,8.13
2022-11-16T07:54:37.535Z,8.14
2022-11-16T07:57:03.984Z,8.18
2022-11-16T07:59:30.370Z,8.23
2022-11-16T08:01:57.174Z,8.27
2022-11-16T08:04:23.722Z,8.23
2022-11-16T08:06:51.781Z,8.25
2022-11-16T08:09:18.483Z,8.19
2022-11-16T08:11:47.142Z,8.29
2022-11-16T08:14:13.983Z,8.35
2022-11-16T08:16:40.444Z,8.34
2022-11-16T08:19:06.807Z,8.37
2022-11-16T08:21:33.278Z,8.42
2022-11-16T08:23:59.653Z,8.37
2022-11-16T08:26:27.954Z,8.39
2022-11-16T08:28:56.488Z,8.43
2022-11-16T08:31:26.240Z,8.39
2022-11-16T08:33:53.134Z,8.41
2022-11-16T08:36:20.349Z,8.48
2022-11-16T08:38:48.883Z,8.51
2022-11-16T08:41:16.704Z,8.51
2022-11-16T08:43:44.512Z,8.58
2022-11-16T08:46:11.496Z,8.58
2022-11-16T08:48:38.776Z,8.56
2022-11-16T08:51:19.437Z,8.65
2022-11-16T08:53:48.186Z,8.68
2022-11-16T08:56:16.526Z,8.72
2022-11-16T08:58:44.282Z,8.66
2022-11-16T09:01:13.863Z,8.75
2022-11-16T09:03:41.057Z,8.72
2022-11-16T09:06:09.371Z,8.65
2022-11-16T09:08:37.688Z,8.73
2022-11-16T09:11:09.348Z,8.75
2022-11-16T09:13:35.798Z,8.81
2022-11-16T09:16:03.005Z,8.87
2022-11-16T09:18:30.398Z,8.91
2022-11-16T09:20:57.182Z,8.85
2022-11-16T09:23:25.566Z,8.88
2022-11-16T09:25:53.128Z,9.01
2022-11-16T09:28:20.673Z,9.04
2022-11-16T09:30:50.371Z,9.07
2022-11-16T09:33:17.237Z,9.19
2022-11-16T09:35:44.087Z,9.15
2022-11-16T09:38:12.665Z,9.19
2022-11-16T09:40:46.020Z,9.30
2022-11-16T09:43:27.046Z,9.58
2022-11-16T09:46:22.893Z,10.11
2022-11-16T09:48:50.235Z,10.62
2022-11-16T09:51:18.532Z,11.24
2022-11-16T09:53:55.341Z,11.59
2022-11-16T09:56:23.985Z,11.34
2022-11-16T09:59:02.834Z,10.92
2022-11-16T10:01:47.230Z,10.87
2022-11-16T10:04:20.223Z,10.98
2022-11-16T10:06:56.160Z,10.64
2022-11-16T10:09:23.255Z,10.64
2022-11-16T10:12:28.763Z,10.73
2022-11-16T10:15:20.592Z,11.20
2022-11-16T10:18:02.379Z,11.69
2022-11-16T10:20:46.436Z,12.05
2022-11-16T10:23:32.969Z,12.54
2022-11-16T10:26:37.375Z,12.69
2022-11-16T10:29:22.795Z,12.09
2022-11-16T10:32:02.007Z,11.96
2022-11-16T10:34:37.378Z,11.85
2022-11-16T10:37:08.439Z,11.58
2022-11-16T10:39:36.605Z,11.84
2022-11-16T10:42:11.708Z,12.18
2022-11-16T10:44:46.598Z,12.66
2022-11-16T10:47:28.128Z,12.78
2022-11-16T10:50:00.555Z,13.02
2022-11-16T10:52:28.054Z,13.18
2022-11-16T10:54:54.480Z,13.28
2022-11-16T10:57:23.731Z,12.95
2022-11-16T10:59:55.414Z,12.44
2022-11-16T11:02:24.711Z,12.33
2022-11-16T11:05:06.656Z,12.24
2022-11-16T11:07:37.674Z,12.08
2022-11-16T11:10:05.086Z,12.53
2022-11-16T11:12:40.592Z,12.97
2022-11-16T11:15:07.020Z,13.33
2022-11-16T11:17:35.616Z,13.48
2022-11-16T11:20:23.007Z,13.98
2022-11-16T11:22:54.337Z,13.73
2022-11-16T11:25:32.348Z,14.01
2022-11-16T11:28:16.993Z,13.98
2022-11-16T11:30:53.852Z,13.34
2022-11-16T11:33:23.795Z,12.86
2022-11-16T11:36:04.332Z,12.53
2022-11-16T11:38:31.909Z,12.22
2022-11-16T11:41:05.301Z,11.67
2022-11-16T11:43:34.350Z,11.37
2022-11-16T11:46:12.114Z,11.22
2022-11-16T11:48:58.279Z,11.02
2022-11-16T11:51:31.305Z,11.11
2022-11-16T11:54:00.607Z,10.93
2022-11-16T11:56:30.618Z,10.95
2022-11-16T11:58:57.748Z,10.92
2022-11-16T12:01:39.473Z,11.02
2022-11-16T12:04:13.892Z,10.95
2022-11-16T12:06:58.016Z,11.02
2022-11-16T12:09:38.151Z,10.86
2022-11-16T12:12:20.634Z,10.98
2022-11-16T12:15:14.106Z,11.03
2022-11-16T12:17:53.392Z,10.99
2022-11-16T12:20:43.919Z,10.94
2022-11-16T12:23:27.423Z,10.79
2022-11-16T12:26:36.762Z,10.72
2022-11-16T12:29:29.126Z,10.65
2022-11-16T12:32:37.895Z,10.52
2022-11-16T12:35:36.990Z,10.50
2022-11-16T12:38:29.163Z,10.55
2022-11-16T12:41:26.117Z,10.55
2022-11-16T12:44:08.469Z,10.58
2022-11-16T12:46:40.908Z,10.64
2022-11-16T12:49:16.413Z,10.65
2022-11-16T12:51:57.207Z,10.68
2022-11-16T12:55:04.250Z,10.68
2022-11-16T12:58:02.412Z,10.59
2022-11-16T13:00:39.276Z,10.57
2022-11-16T13:03:18.925Z,10.65
2022-11-16T13:05:56.067Z,10.68
2022-11-16T13:08:44.121Z,10.80
2022-11-16T13:11:25.840Z,10.84
2022-11-16T13:13:57.848Z,10.78
2022-11-16T13:16:25.163Z,10.66
2022-11-16T13:18:54.564Z,10.60
2022-11-16T13:21:39.750Z,10.59
2022-11-16T13:24:24.164Z,10.51
2022-11-16T13:27:12.530Z,10.50
2022-11-16T13:29:59.402Z,10.44
2022-11-16T13:32:53.688Z,10.42
2022-11-16T13:35:20.944Z,10.42
2022-11-16T13:37:49.625Z,10.42
2022-11-16T13:40:33.239Z,10.41
2022-11-16T13:43:11.693Z,10.41
2022-11-16T13:45:42.840Z,10.41
2022-11-16T13:48:21.045Z,10.36
2022-11-16T13:50:50.831Z,10.29
2022-11-16T13:56:14.004Z,10.33
2022-11-16T13:58:47.623Z,10.24
2022-11-16T14:01:15.020Z,10.32
2022-11-16T14:03:44.709Z,10.31
2022-11-16T14:06:20.151Z,10.32
2022-11-16T14:08:49.232Z,10.20
2022-11-16T14:11:35.154Z,10.24
2022-11-16T14:14:05.802Z,10.20
2022-11-16T14:16:47.348Z,10.17
2022-11-16T14:19:51.995Z,10.17
2022-11-16T14:22:21.246Z,10.19
2022-11-16T14:24:57.585Z,10.17
2022-11-16T14:27:30.979Z,10.25
2022-11-16T14:30:03.397Z,10.22
2022-11-16T14:32:41.429Z,10.18
2022-11-16T14:35:27.585Z,10.17
2022-11-16T14:38:00.781Z,10.11
2022-11-16T14:40:27.745Z,10.12
2022-11-16T14:43:21.527Z,10.13
2022-11-16T14:45:54.478Z,10.03
2022-11-16T14:48:25.859Z,10.08
2022-11-16T14:51:09.490Z,10.10
2022-11-16T14:53:39.516Z,10.04
2022-11-16T14:56:15.141Z,10.04
2022-11-16T14:58:56.546Z,10.07
2022-11-16T15:01:27.767Z,9.89
2022-11-16T15:04:02.476Z,10.05
2022-11-16T15:06:42.146Z,10.05
2022-11-16T15:09:16.699Z,10.02
2022-11-16T15:12:07.498Z,10.01
2022-11-16T15:14:40.051Z,10.02
2022-11-16T15:17:07.278Z,10.00
2022-11-16T15:19:33.758Z,10.00
2022-11-16T15:22:02.068Z,10.01
2022-11-16T15:24:32.200Z,9.93
2022-11-16T15:27:12.082Z,9.93
2022-11-16T15:29:38.909Z,9.97
2022-11-16T15:32:07.438Z,9.94
2022-11-16T15:34:34.014Z,9.90
2022-11-16T15:37:00.481Z,9.85
2022-11-16T15:39:32.214Z,9.79
2022-11-16T15:42:03.451Z,9.76
2022-11-16T15:44:31.570Z,9.74
2022-11-16T15:46:58.782Z,9.67
2022-11-16T15:49:36.118Z,9.62
2022-11-16T15:52:02.598Z,9.59
2022-11-16T15:54:51.115Z,9.59
2022-11-16T15:57:19.493Z,9.52
2022-11-16T15:59:55.146Z,9.54
2022-11-16T16:02:28.187Z,9.49
2022-11-16T16:04:54.675Z,9.51
2022-11-16T16:07:42.178Z,9.51
2022-11-16T16:10:26.843Z,9.55
2022-11-16T16:12:55.645Z,9.60
2022-11-16T16:15:22.897Z,9.66
2022-11-16T16:17:50.706Z,9.62
2022-11-16T16:20:19.953Z,9.64
2022-11-16T16:22:46.526Z,9.60
2022-11-16T16:25:34.004Z,9.60
2022-11-16T16:28:00.739Z,9.54
2022-11-16T16:30:29.313Z,9.59
2022-11-16T16:32:56.257Z,9.60
2022-11-16T16:35:24.535Z,9.57
2022-11-16T16:37:57.359Z,9.53
2022-11-16T16:40:23.763Z,9.54
2022-11-16T16:42:50.939Z,9.51
2022-11-16T16:45:23.352Z,9.49
2022-11-16T16:47:50.261Z,9.50
2022-11-16T16:50:17.069Z,9.41
2022-11-16T16:52:43.557Z,9.39
2022-11-16T16:55:09.989Z,9.39
2022-11-16T16:57:36.525Z,9.32
2022-11-16T17:00:04.201Z,9.29
2022-11-16T17:02:30.839Z,9.16
2022-11-16T17:04:57.222Z,9.19
2022-11-16T17:07:23.697Z,9.13
2022-11-16T17:09:50.154Z,9.15
2022-11-16T17:12:16.557Z,9.12
2022-11-16T17:14:42.994Z,9.04
2022-11-16T17:17:10.156Z,8.94
2022-11-16T17:19:37.790Z,8.91
2022-11-16T17:22:05.236Z,8.83
2022-11-16T17:24:31.665Z,8.79
2022-11-16T17:26:58.068Z,8.75
2022-11-16T17:29:24.437Z,8.70
2022-11-16T17:31:50.805Z,8.63
2022-11-16T17:34:17.391Z,8.56
2022-11-16T17:36:44.490Z,8.51
2022-11-16T17:39:10.961Z,8.52
2022-11-16T17:41:38.412Z,8.46
2022-11-16T17:44:05.204Z,8.42
2022-11-16T17:46:31.733Z,8.43
2022-11-16T17:48:58.444Z,8.35
2022-11-16T17:51:26.137Z,8.34
2022-11-16T17:53:52.900Z,8.34
2022-11-16T17:56:21.711Z,8.31
2022-11-16T17:58:50.251Z,8.34
2022-11-16T18:01:16.965Z,8.26
2022-11-16T18:03:43.469Z,8.26
2022-11-16T18:06:15.425Z,8.27
2022-11-16T18:08:43.634Z,8.29
2022-11-16T18:11:21.870Z,8.26
2022-11-16T18:13:55.960Z,8.29
2022-11-16T18:16:25.055Z,8.25
2022-11-16T18:19:02.895Z,8.31
2022-11-16T18:21:29.420Z,8.34
2022-11-16T18:23:58.130Z,8.36
2022-11-16T18:26:25.067Z,8.39
2022-11-16T18:28:52.554Z,8.41
2022-11-16T18:31:22.541Z,8.40
2022-11-16T18:33:50.826Z,8.43
2022-11-16T18:36:18.633Z,8.37
2022-11-16T18:38:45.818Z,8.40
2022-11-16T18:41:12.181Z,8.40
2022-11-16T18:43:39.938Z,8.45
2022-11-16T18:46:06.769Z,8.46
2022-11-16T18:48:33.501Z,8.45
2022-11-16T18:51:01.020Z,8.47
2022-11-16T18:53:28.409Z,8.46
2022-11-16T18:55:57.995Z,8.49
2022-11-16T18:58:49.267Z,8.52
2022-11-16T19:01:14.509Z,8.54
2022-11-16T19:03:41.405Z,8.52
2022-11-16T19:06:09.857Z,8.55
2022-11-16T19:08:38.367Z,8.58
2022-11-16T19:11:13.545Z,8.62
2022-11-16T19:13:41.851Z,8.66
2022-11-16T19:16:10.295Z,8.62
2022-11-16T19:18:37.827Z,8.64
2022-11-16T19:21:12.207Z,8.64
2022-11-16T19:23:41.487Z,8.64
2022-11-16T19:26:08.589Z,8.65
2022-11-16T19:28:36.956Z,8.64
2022-11-16T19:31:12.896Z,8.60
2022-11-16T19:33:41.149Z,8.61
2022-11-16T19:36:15.741Z,8.58
2022-11-16T19:38:43.056Z,8.53
2022-11-16T19:41:11.320Z,8.53
2022-11-16T19:43:38.502Z,8.41
2022-11-16T19:46:06.476Z,8.43
2022-11-16T19:48:33.161Z,8.31
2022-11-16T19:51:08.871Z,8.41
2022-11-16T19:53:36.571Z,8.42
2022-11-16T19:56:04.819Z,8.47
2022-11-16T19:58:32.078Z,8.49
2022-11-16T20:01:06.272Z,8.55
2022-11-16T20:03:33.242Z,8.59
2022-11-16T20:06:06.395Z,8.62
2022-11-16T20:08:32.945Z,8.57
2022-11-16T20:10:59.397Z,8.53
2022-11-16T20:13:25.883Z,8.54
2022-11-16T20:15:52.274Z,8.53
2022-11-16T20:18:18.748Z,8.53
2022-11-16T20:20:45.153Z,8.52
2022-11-16T20:23:15.607Z,8.51
2022-11-16T20:25:42.156Z,8.54
2022-11-16T20:28:09.503Z,8.55
2022-11-16T20:30:36.096Z,8.56
2022-11-16T20:33:02.478Z,8.57
2022-11-16T20:35:29.007Z,8.53
2022-11-16T20:37:55.396Z,8.62
2022-11-16T20:40:22.857Z,8.63
2022-11-16T20:42:49.390Z,8.61
2022-11-16T20:45:15.807Z,8.60
2022-11-16T20:47:42.225Z,8.61
2022-11-16T20:50:09.072Z,8.58
2022-11-16T20:52:39.650Z,8.62
2022-11-16T20:55:09.911Z,8.62
2022-11-16T20:57:36.416Z,8.61
2022-11-16T21:00:05.004Z,8.65
2022-11-16T21:02:31.416Z,8.65
2022-11-16T21:05:00.480Z,8.70
2022-11-16T21:07:27.298Z,8.73
2022-11-16T21:10:12.525Z,8.74
2022-11-16T21:12:57.328Z,8.73
2022-11-16T21:15:23.779Z,8.69
2022-11-16T21:17:50.147Z,8.75
2022-11-16T21:20:32.252Z,8.75
2022-11-16T21:22:58.705Z,8.73
2022-11-16T21:25:25.229Z,8.76
2022-11-16T21:27:51.691Z,8.77
2022-11-16T21:30:19.963Z,8.76
2022-11-16T21:32:46.382Z,8.78
2022-11-16T21:35:12.866Z,8.78
2022-11-16T21:37:39.244Z,8.78
2022-11-16T21:40:06.221Z,8.75
2022-11-16T21:42:32.579Z,8.75
2022-11-16T21:44:58.956Z,8.74
2022-11-16T21:47:25.539Z,8.78
2022-11-16T21:50:16.803Z,8.77
2022-11-16T21:52:38.310Z,8.76
2022-11-16T21:55:05.117Z,8.77
2022-11-16T21:57:31.505Z,8.73
2022-11-16T22:00:00.943Z,8.64
2022-11-16T22:02:27.430Z,8.68
2022-11-16T22:05:12.233Z,8.71
2022-11-16T22:07:40.837Z,8.69
2022-11-16T22:10:11.810Z,8.66
2022-11-16T22:12:38.772Z,8.67
2022-11-16T22:15:07.062Z,8.65
2022-11-16T22:17:33.516Z,8.66
2022-11-16T22:19:59.953Z,8.63
2022-11-16T22:22:26.402Z,8.64
2022-11-16T22:24:52.983Z,8.66
2022-11-16T22:27:19.570Z,8.65
2022-11-16T22:29:45.966Z,8.59
2022-11-16T22:32:12.376Z,8.56
2022-11-16T22:34:38.814Z,8.50
2022-11-16T22:37:06.090Z,8.51
2022-11-16T22:39:32.529Z,8.50
2022-11-16T22:41:59.070Z,8.47
2022-11-16T22:44:25.459Z,8.46
2022-11-16T22:46:52.658Z,8.45
2022-11-16T22:49:19.316Z,8.45
2022-11-16T22:51:45.906Z,8.42
2022-11-16T22:54:12.903Z,8.40
2022-11-16T22:56:39.317Z,8.38
2022-11-16T22:59:05.888Z,8.31
2022-11-16T23:01:32.681Z,8.38
2022-11-16T23:03:59.112Z,8.41
2022-11-16T23:06:25.721Z,8.39
2022-11-16T23:08:52.195Z,8.38
2022-11-16T23:11:39.303Z,8.37
2022-11-16T23:14:25.857Z,8.37
2022-11-16T23:16:52.709Z,8.35
2022-11-16T23:19:39.952Z,8.33
2022-11-16T23:22:26.901Z,8.33
2022-11-16T23:25:11.619Z,8.33
2022-11-16T23:27:43.193Z,8.33
2022-11-16T23:30:13.081Z,8.34
2022-11-16T23:32:40.742Z,8.34
2022-11-16T23:35:07.610Z,8.33
2022-11-16T23:37:34.029Z,8.33
2022-11-16T23:40:00.400Z,8.34
2022-11-16T23:42:45.525Z,8.37
2022-11-16T23:45:11.924Z,8.38
2022-11-16T23:47:38.288Z,8.38
2022-11-16T23:50:05.191Z,8.37
2022-11-16T23:52:31.589Z,8.40
2022-11-16T23:54:57.982Z,8.44
2022-11-16T23:57:24.491Z,8.46
2022-11-16T23:59:50.915Z,8.46
